sensor_id;sensor_type;location;lat;lon;timestamp;P1;durP1;ratioP1;P2;durP2;ratioP2
1975;SDS011;988;48.016;7.800;2023-03-14T00:00:49;15.00;;;14.30;;
1975;SDS011;988;48.016;7.800;2023-03-14T00:03:14;14.40;;;13.70;;
1975;SDS011;988;48.016;7.800;2023-03-14T00:05:40;14.80;;;14.10;;
1975;SDS011;988;48.016;7.800;2023-03-14T00:08:06;15.17;;;14.40;;
1975;SDS011;988;48.016;7.800;2023-03-14T00:10:31;13.37;;;12.77;;
1975;SDS011;988;48.016;7.800;2023-03-14T00:12:57;15.57;;;14.77;;
1975;SDS011;988;48.016;7.800;2023-03-14T00:15:22;14.23;;;13.60;;
1975;SDS011;988;48.016;7.800;2023-03-14T00:17:48;15.27;;;14.50;;
1975;SDS011;988;48.016;7.800;2023-03-14T00:20:14;18.15;;;17.30;;
1975;SDS011;988;48.016;7.800;2023-03-14T00:22:40;18.00;;;17.10;;
1975;SDS011;988;48.016;7.800;2023-03-14T00:25:07;19.70;;;18.55;;
1975;SDS011;988;48.016;7.800;2023-03-14T00:27:34;20.50;;;19.50;;
1975;SDS011;988;48.016;7.800;2023-03-14T00:30:01;21.45;;;20.42;;
1975;SDS011;988;48.016;7.800;2023-03-14T00:32:27;21.55;;;20.40;;
1975;SDS011;988;48.016;7.800;2023-03-14T00:34:53;20.30;;;19.30;;
1975;SDS011;988;48.016;7.800;2023-03-14T00:37:19;20.17;;;19.27;;
1975;SDS011;988;48.016;7.800;2023-03-14T00:39:44;20.73;;;19.73;;
1975;SDS011;988;48.016;7.800;2023-03-14T00:42:10;20.30;;;19.33;;
1975;SDS011;988;48.016;7.800;2023-03-14T00:44:35;20.20;;;19.20;;
1975;SDS011;988;48.016;7.800;2023-03-14T00:47:01;20.03;;;19.03;;
1975;SDS011;988;48.016;7.800;2023-03-14T00:49:27;19.57;;;18.57;;
1975;SDS011;988;48.016;7.800;2023-03-14T00:51:52;19.53;;;18.60;;
1975;SDS011;988;48.016;7.800;2023-03-14T00:54:19;20.93;;;19.90;;
1975;SDS011;988;48.016;7.800;2023-03-14T00:56:45;20.40;;;19.40;;
1975;SDS011;988;48.016;7.800;2023-03-14T00:59:11;20.50;;;19.20;;
1975;SDS011;988;48.016;7.800;2023-03-14T01:01:36;18.03;;;17.23;;
1975;SDS011;988;48.016;7.800;2023-03-14T01:04:03;19.60;;;18.60;;
1975;SDS011;988;48.016;7.800;2023-03-14T01:06:29;19.17;;;18.27;;
1975;SDS011;988;48.016;7.800;2023-03-14T01:08:55;17.33;;;16.43;;
1975;SDS011;988;48.016;7.800;2023-03-14T01:11:24;15.55;;;14.85;;
1975;SDS011;988;48.016;7.800;2023-03-14T01:13:55;17.48;;;16.67;;
1975;SDS011;988;48.016;7.800;2023-03-14T01:16:21;17.08;;;16.27;;
1975;SDS011;988;48.016;7.800;2023-03-14T01:18:48;17.90;;;17.10;;
1975;SDS011;988;48.016;7.800;2023-03-14T01:21:18;16.87;;;16.03;;
1975;SDS011;988;48.016;7.800;2023-03-14T01:23:51;18.15;;;17.25;;
1975;SDS011;988;48.016;7.800;2023-03-14T01:26:19;18.30;;;17.25;;
1975;SDS011;988;48.016;7.800;2023-03-14T01:28:47;17.23;;;16.33;;
1975;SDS011;988;48.016;7.800;2023-03-14T01:31:14;17.30;;;16.30;;
1975;SDS011;988;48.016;7.800;2023-03-14T01:33:41;16.70;;;15.90;;
1975;SDS011;988;48.016;7.800;2023-03-14T01:36:08;16.75;;;15.85;;
1975;SDS011;988;48.016;7.800;2023-03-14T01:38:34;16.33;;;15.52;;
1975;SDS011;988;48.016;7.800;2023-03-14T01:41:01;16.75;;;15.65;;
1975;SDS011;988;48.016;7.800;2023-03-14T01:43:27;18.23;;;17.23;;
1975;SDS011;988;48.016;7.800;2023-03-14T01:48:55;16.63;;;15.68;;
1975;SDS011;988;48.016;7.800;2023-03-14T01:51:24;15.88;;;15.13;;
1975;SDS011;988;48.016;7.800;2023-03-14T01:54:17;17.13;;;16.23;;
1975;SDS011;988;48.016;7.800;2023-03-14T01:56:57;17.65;;;16.75;;
1975;SDS011;988;48.016;7.800;2023-03-14T01:59:36;16.10;;;14.90;;
1975;SDS011;988;48.016;7.800;2023-03-14T02:02:04;14.10;;;13.50;;
1975;SDS011;988;48.016;7.800;2023-03-14T02:04:32;17.95;;;17.05;;
1975;SDS011;988;48.016;7.800;2023-03-14T02:07:03;16.95;;;16.05;;
1975;SDS011;988;48.016;7.800;2023-03-14T02:09:33;15.30;;;14.60;;
1975;SDS011;988;48.016;7.800;2023-03-14T02:11:59;15.13;;;14.40;;
1975;SDS011;988;48.016;7.800;2023-03-14T02:14:28;17.60;;;16.70;;
1975;SDS011;988;48.016;7.800;2023-03-14T02:16:57;16.38;;;15.68;;
1975;SDS011;988;48.016;7.800;2023-03-14T02:19:26;16.30;;;15.52;;
1975;SDS011;988;48.016;7.800;2023-03-14T02:22:02;16.15;;;15.25;;
1975;SDS011;988;48.016;7.800;2023-03-14T02:27:05;18.00;;;17.00;;
1975;SDS011;988;48.016;7.800;2023-03-14T02:29:36;16.95;;;16.10;;
1975;SDS011;988;48.016;7.800;2023-03-14T02:32:06;16.02;;;15.23;;
1975;SDS011;988;48.016;7.800;2023-03-14T02:34:32;17.17;;;16.38;;
1975;SDS011;988;48.016;7.800;2023-03-14T02:36:58;16.50;;;15.70;;
1975;SDS011;988;48.016;7.800;2023-03-14T02:39:38;18.38;;;17.20;;
1975;SDS011;988;48.016;7.800;2023-03-14T02:42:06;17.05;;;16.25;;
1975;SDS011;988;48.016;7.800;2023-03-14T02:44:32;16.80;;;16.00;;
1975;SDS011;988;48.016;7.800;2023-03-14T02:46:58;19.10;;;18.07;;
1975;SDS011;988;48.016;7.800;2023-03-14T02:49:23;18.67;;;17.67;;
1975;SDS011;988;48.016;7.800;2023-03-14T02:51:53;17.40;;;16.60;;
1975;SDS011;988;48.016;7.800;2023-03-14T02:54:19;17.87;;;17.00;;
1975;SDS011;988;48.016;7.800;2023-03-14T02:56:45;20.33;;;19.20;;
1975;SDS011;988;48.016;7.800;2023-03-14T02:59:11;18.60;;;17.60;;
1975;SDS011;988;48.016;7.800;2023-03-14T03:01:36;19.50;;;18.30;;
1975;SDS011;988;48.016;7.800;2023-03-14T03:04:02;17.13;;;15.80;;
1975;SDS011;988;48.016;7.800;2023-03-14T03:06:28;18.00;;;17.00;;
1975;SDS011;988;48.016;7.800;2023-03-14T03:08:54;17.90;;;17.00;;
1975;SDS011;988;48.016;7.800;2023-03-14T03:11:19;16.80;;;15.83;;
1975;SDS011;988;48.016;7.800;2023-03-14T03:13:45;18.65;;;17.75;;
1975;SDS011;988;48.016;7.800;2023-03-14T03:16:11;18.33;;;17.43;;
1975;SDS011;988;48.016;7.800;2023-03-14T03:18:38;19.27;;;18.33;;
1975;SDS011;988;48.016;7.800;2023-03-14T03:21:04;17.63;;;16.77;;
1975;SDS011;988;48.016;7.800;2023-03-14T03:23:30;17.23;;;16.33;;
1975;SDS011;988;48.016;7.800;2023-03-14T03:25:56;18.07;;;16.87;;
1975;SDS011;988;48.016;7.800;2023-03-14T03:28:22;17.33;;;16.33;;
1975;SDS011;988;48.016;7.800;2023-03-14T03:30:49;19.85;;;18.45;;
1975;SDS011;988;48.016;7.800;2023-03-14T03:33:14;18.80;;;17.70;;
1975;SDS011;988;48.016;7.800;2023-03-14T03:35:44;18.27;;;17.27;;
1975;SDS011;988;48.016;7.800;2023-03-14T03:38:11;17.75;;;16.75;;
1975;SDS011;988;48.016;7.800;2023-03-14T03:40:37;17.30;;;16.40;;
1975;SDS011;988;48.016;7.800;2023-03-14T03:43:03;16.83;;;15.93;;
1975;SDS011;988;48.016;7.800;2023-03-14T03:45:29;20.03;;;18.63;;
1975;SDS011;988;48.016;7.800;2023-03-14T03:47:55;17.75;;;16.75;;
1975;SDS011;988;48.016;7.800;2023-03-14T03:50:21;17.73;;;16.73;;
1975;SDS011;988;48.016;7.800;2023-03-14T03:52:46;19.47;;;18.33;;
1975;SDS011;988;48.016;7.800;2023-03-14T03:55:12;17.80;;;16.80;;
1975;SDS011;988;48.016;7.800;2023-03-14T03:57:37;17.00;;;16.00;;
1975;SDS011;988;48.016;7.800;2023-03-14T04:00:04;18.00;;;16.67;;
1975;SDS011;988;48.016;7.800;2023-03-14T04:02:33;18.45;;;17.20;;
1975;SDS011;988;48.016;7.800;2023-03-14T04:04:58;19.00;;;18.00;;
1975;SDS011;988;48.016;7.800;2023-03-14T04:07:24;18.83;;;17.83;;
1975;SDS011;988;48.016;7.800;2023-03-14T04:09:50;18.77;;;17.87;;
1975;SDS011;988;48.016;7.800;2023-03-14T04:12:15;20.50;;;19.20;;
1975;SDS011;988;48.016;7.800;2023-03-14T04:14:41;21.17;;;19.97;;
1975;SDS011;988;48.016;7.800;2023-03-14T04:17:07;18.80;;;17.70;;
1975;SDS011;988;48.016;7.800;2023-03-14T04:19:33;19.73;;;18.60;;
1975;SDS011;988;48.016;7.800;2023-03-14T04:21:58;20.40;;;19.40;;
1975;SDS011;988;48.016;7.800;2023-03-14T04:24:24;21.53;;;20.37;;
1975;SDS011;988;48.016;7.800;2023-03-14T04:26:49;20.13;;;19.03;;
1975;SDS011;988;48.016;7.800;2023-03-14T04:29:15;19.07;;;18.03;;
1975;SDS011;988;48.016;7.800;2023-03-14T04:31:41;18.47;;;17.57;;
1975;SDS011;988;48.016;7.800;2023-03-14T04:34:07;17.90;;;17.10;;
1975;SDS011;988;48.016;7.800;2023-03-14T04:36:32;17.90;;;17.10;;
1975;SDS011;988;48.016;7.800;2023-03-14T04:38:58;19.50;;;18.43;;
1975;SDS011;988;48.016;7.800;2023-03-14T04:41:24;18.80;;;17.80;;
1975;SDS011;988;48.016;7.800;2023-03-14T04:43:49;18.70;;;17.60;;
1975;SDS011;988;48.016;7.800;2023-03-14T04:46:15;16.60;;;15.80;;
1975;SDS011;988;48.016;7.800;2023-03-14T04:48:41;19.13;;;18.02;;
1975;SDS011;988;48.016;7.800;2023-03-14T04:51:07;16.83;;;16.00;;
1975;SDS011;988;48.016;7.800;2023-03-14T04:53:32;19.03;;;17.97;;
1975;SDS011;988;48.016;7.800;2023-03-14T04:55:59;18.73;;;17.73;;
1975;SDS011;988;48.016;7.800;2023-03-14T04:58:24;19.17;;;18.27;;
1975;SDS011;988;48.016;7.800;2023-03-14T05:00:50;20.40;;;19.40;;
1975;SDS011;988;48.016;7.800;2023-03-14T05:03:16;19.57;;;18.47;;
1975;SDS011;988;48.016;7.800;2023-03-14T05:05:43;18.25;;;17.25;;
1975;SDS011;988;48.016;7.800;2023-03-14T05:08:09;19.15;;;18.15;;
1975;SDS011;988;48.016;7.800;2023-03-14T05:10:35;18.40;;;17.50;;
1975;SDS011;988;48.016;7.800;2023-03-14T05:13:00;18.67;;;17.67;;
1975;SDS011;988;48.016;7.800;2023-03-14T05:15:26;18.50;;;17.43;;
1975;SDS011;988;48.016;7.800;2023-03-14T05:17:52;18.23;;;17.40;;
1975;SDS011;988;48.016;7.800;2023-03-14T05:20:19;16.75;;;16.05;;
1975;SDS011;988;48.016;7.800;2023-03-14T05:22:45;19.30;;;18.30;;
1975;SDS011;988;48.016;7.800;2023-03-14T05:25:11;17.90;;;17.10;;
1975;SDS011;988;48.016;7.800;2023-03-14T05:27:36;17.97;;;17.10;;
1975;SDS011;988;48.016;7.800;2023-03-14T05:30:03;18.80;;;17.23;;
1975;SDS011;988;48.016;7.800;2023-03-14T05:32:30;18.08;;;17.05;;
1975;SDS011;988;48.016;7.800;2023-03-14T05:34:55;17.70;;;16.60;;
1975;SDS011;988;48.016;7.800;2023-03-14T05:37:24;19.75;;;18.75;;
1975;SDS011;988;48.016;7.800;2023-03-14T05:39:50;18.45;;;17.55;;
1975;SDS011;988;48.016;7.800;2023-03-14T05:42:15;18.70;;;17.70;;
1975;SDS011;988;48.016;7.800;2023-03-14T05:44:41;17.27;;;16.37;;
1975;SDS011;988;48.016;7.800;2023-03-14T05:47:07;18.80;;;17.90;;
1975;SDS011;988;48.016;7.800;2023-03-14T05:49:32;17.83;;;16.87;;
1975;SDS011;988;48.016;7.800;2023-03-14T05:51:58;18.37;;;17.47;;
1975;SDS011;988;48.016;7.800;2023-03-14T05:54:23;18.40;;;17.50;;
1975;SDS011;988;48.016;7.800;2023-03-14T05:56:49;18.20;;;17.30;;
1975;SDS011;988;48.016;7.800;2023-03-14T05:59:14;18.97;;;17.97;;
1975;SDS011;988;48.016;7.800;2023-03-14T06:01:40;18.30;;;17.20;;
1975;SDS011;988;48.016;7.800;2023-03-14T06:04:06;17.87;;;17.07;;
1975;SDS011;988;48.016;7.800;2023-03-14T06:06:31;17.33;;;16.53;;
1975;SDS011;988;48.016;7.800;2023-03-14T06:08:57;17.27;;;16.47;;
1975;SDS011;988;48.016;7.800;2023-03-14T06:11:22;16.43;;;15.63;;
1975;SDS011;988;48.016;7.800;2023-03-14T06:13:48;16.87;;;16.00;;
1975;SDS011;988;48.016;7.800;2023-03-14T06:16:14;17.50;;;16.60;;
1975;SDS011;988;48.016;7.800;2023-03-14T06:18:39;17.00;;;16.20;;
1975;SDS011;988;48.016;7.800;2023-03-14T06:21:05;16.97;;;16.20;;
1975;SDS011;988;48.016;7.800;2023-03-14T06:23:32;18.13;;;17.27;;
1975;SDS011;988;48.016;7.800;2023-03-14T06:25:58;18.30;;;17.50;;
1975;SDS011;988;48.016;7.800;2023-03-14T06:28:24;18.30;;;17.27;;
1975;SDS011;988;48.016;7.800;2023-03-14T06:30:50;17.27;;;16.47;;
1975;SDS011;988;48.016;7.800;2023-03-14T06:33:15;18.43;;;17.27;;
1975;SDS011;988;48.016;7.800;2023-03-14T06:35:41;21.63;;;20.47;;
1975;SDS011;988;48.016;7.800;2023-03-14T06:38:06;20.20;;;19.30;;
1975;SDS011;988;48.016;7.800;2023-03-14T06:40:32;20.80;;;19.90;;
1975;SDS011;988;48.016;7.800;2023-03-14T06:42:58;21.23;;;20.13;;
1975;SDS011;988;48.016;7.800;2023-03-14T06:45:23;21.57;;;20.67;;
1975;SDS011;988;48.016;7.800;2023-03-14T06:47:49;21.70;;;20.60;;
1975;SDS011;988;48.016;7.800;2023-03-14T06:50:14;23.10;;;21.90;;
1975;SDS011;988;48.016;7.800;2023-03-14T06:52:40;21.10;;;20.20;;
1975;SDS011;988;48.016;7.800;2023-03-14T06:55:11;21.05;;;19.98;;
1975;SDS011;988;48.016;7.800;2023-03-14T06:57:36;20.27;;;19.37;;
1975;SDS011;988;48.016;7.800;2023-03-14T07:00:03;18.83;;;17.83;;
1975;SDS011;988;48.016;7.800;2023-03-14T07:02:29;19.15;;;18.35;;
1975;SDS011;988;48.016;7.800;2023-03-14T07:04:55;20.10;;;19.20;;
1975;SDS011;988;48.016;7.800;2023-03-14T07:07:21;17.63;;;16.83;;
1975;SDS011;988;48.016;7.800;2023-03-14T07:09:46;18.23;;;17.43;;
1975;SDS011;988;48.016;7.800;2023-03-14T07:12:12;17.40;;;16.70;;
1975;SDS011;988;48.016;7.800;2023-03-14T07:14:37;16.90;;;16.20;;
1975;SDS011;988;48.016;7.800;2023-03-14T07:17:03;17.50;;;16.67;;
1975;SDS011;988;48.016;7.800;2023-03-14T07:19:29;18.30;;;17.50;;
1975;SDS011;988;48.016;7.800;2023-03-14T07:21:54;19.60;;;18.40;;
1975;SDS011;988;48.016;7.800;2023-03-14T07:24:20;20.90;;;19.80;;
1975;SDS011;988;48.016;7.800;2023-03-14T07:26:45;20.03;;;19.03;;
1975;SDS011;988;48.016;7.800;2023-03-14T07:29:11;17.67;;;16.97;;
1975;SDS011;988;48.016;7.800;2023-03-14T07:31:36;17.47;;;16.47;;
1975;SDS011;988;48.016;7.800;2023-03-14T07:34:02;18.00;;;17.20;;
1975;SDS011;988;48.016;7.800;2023-03-14T07:36:28;20.17;;;19.10;;
1975;SDS011;988;48.016;7.800;2023-03-14T07:38:53;19.70;;;18.80;;
1975;SDS011;988;48.016;7.800;2023-03-14T07:41:19;16.37;;;15.70;;
1975;SDS011;988;48.016;7.800;2023-03-14T07:43:45;17.77;;;17.08;;
1975;SDS011;988;48.016;7.800;2023-03-14T07:46:11;19.10;;;18.30;;
1975;SDS011;988;48.016;7.800;2023-03-14T07:48:37;19.00;;;18.20;;
1975;SDS011;988;48.016;7.800;2023-03-14T07:51:03;17.43;;;16.70;;
1975;SDS011;988;48.016;7.800;2023-03-14T07:53:28;18.00;;;17.20;;
1975;SDS011;988;48.016;7.800;2023-03-14T07:55:54;17.73;;;16.33;;
1975;SDS011;988;48.016;7.800;2023-03-14T07:58:20;20.37;;;18.90;;
1975;SDS011;988;48.016;7.800;2023-03-14T08:00:49;19.20;;;18.40;;
1975;SDS011;988;48.016;7.800;2023-03-14T08:03:16;15.77;;;15.00;;
1975;SDS011;988;48.016;7.800;2023-03-14T08:05:43;17.17;;;16.48;;
1975;SDS011;988;48.016;7.800;2023-03-14T08:08:09;19.45;;;18.48;;
1975;SDS011;988;48.016;7.800;2023-03-14T08:10:34;18.20;;;17.40;;
1975;SDS011;988;48.016;7.800;2023-03-14T08:13:00;15.10;;;14.50;;
1975;SDS011;988;48.016;7.800;2023-03-14T08:15:26;17.55;;;16.65;;
1975;SDS011;988;48.016;7.800;2023-03-14T08:17:55;21.17;;;19.48;;
1975;SDS011;988;48.016;7.800;2023-03-14T08:20:21;17.93;;;17.17;;
1975;SDS011;988;48.016;7.800;2023-03-14T08:22:47;17.13;;;16.33;;
1975;SDS011;988;48.016;7.800;2023-03-14T08:25:14;16.15;;;15.45;;
1975;SDS011;988;48.016;7.800;2023-03-14T08:27:40;18.00;;;17.10;;
1975;SDS011;988;48.016;7.800;2023-03-14T08:30:07;16.10;;;15.30;;
1975;SDS011;988;48.016;7.800;2023-03-14T08:32:34;16.27;;;15.50;;
1975;SDS011;988;48.016;7.800;2023-03-14T08:35:00;16.67;;;15.57;;
1975;SDS011;988;48.016;7.800;2023-03-14T08:37:26;16.63;;;15.83;;
1975;SDS011;988;48.016;7.800;2023-03-14T08:39:52;17.70;;;16.73;;
1975;SDS011;988;48.016;7.800;2023-03-14T08:42:18;17.20;;;16.35;;
1975;SDS011;988;48.016;7.800;2023-03-14T08:44:44;14.93;;;14.20;;
1975;SDS011;988;48.016;7.800;2023-03-14T08:47:10;17.10;;;16.30;;
1975;SDS011;988;48.016;7.800;2023-03-14T08:49:35;17.33;;;16.53;;
1975;SDS011;988;48.016;7.800;2023-03-14T08:52:04;17.10;;;16.30;;
1975;SDS011;988;48.016;7.800;2023-03-14T08:54:30;18.65;;;17.85;;
1975;SDS011;988;48.016;7.800;2023-03-14T08:56:56;18.98;;;18.17;;
1975;SDS011;988;48.016;7.800;2023-03-14T08:59:23;17.48;;;16.67;;
1975;SDS011;988;48.016;7.800;2023-03-14T09:01:49;18.88;;;18.08;;
1975;SDS011;988;48.016;7.800;2023-03-14T09:04:15;18.63;;;17.73;;
1975;SDS011;988;48.016;7.800;2023-03-14T09:06:42;18.30;;;17.30;;
1975;SDS011;988;48.016;7.800;2023-03-14T09:09:07;16.30;;;15.60;;
1975;SDS011;988;48.016;7.800;2023-03-14T09:11:33;16.80;;;16.10;;
1975;SDS011;988;48.016;7.800;2023-03-14T09:13:59;18.37;;;17.50;;
1975;SDS011;988;48.016;7.800;2023-03-14T09:16:24;17.80;;;17.00;;
1975;SDS011;988;48.016;7.800;2023-03-14T09:18:50;16.43;;;15.63;;
1975;SDS011;988;48.016;7.800;2023-03-14T09:21:19;16.17;;;15.50;;
1975;SDS011;988;48.016;7.800;2023-03-14T09:23:45;17.15;;;16.45;;
1975;SDS011;988;48.016;7.800;2023-03-14T09:26:11;16.87;;;16.17;;
1975;SDS011;988;48.016;7.800;2023-03-14T09:28:36;17.03;;;16.33;;
1975;SDS011;988;48.016;7.800;2023-03-14T09:31:06;16.20;;;15.50;;
1975;SDS011;988;48.016;7.800;2023-03-14T09:33:33;16.85;;;16.15;;
1975;SDS011;988;48.016;7.800;2023-03-14T09:35:59;16.90;;;16.20;;
1975;SDS011;988;48.016;7.800;2023-03-14T09:38:25;16.60;;;15.90;;
1975;SDS011;988;48.016;7.800;2023-03-14T09:40:51;16.50;;;15.80;;
1975;SDS011;988;48.016;7.800;2023-03-14T09:43:18;17.42;;;16.73;;
1975;SDS011;988;48.016;7.800;2023-03-14T09:45:46;16.00;;;15.30;;
1975;SDS011;988;48.016;7.800;2023-03-14T09:48:19;16.25;;;15.55;;
1975;SDS011;988;48.016;7.800;2023-03-14T09:50:51;15.18;;;14.57;;
1975;SDS011;988;48.016;7.800;2023-03-14T09:53:24;14.50;;;13.88;;
1975;SDS011;988;48.016;7.800;2023-03-14T09:55:58;14.40;;;13.80;;
1975;SDS011;988;48.016;7.800;2023-03-14T09:58:24;14.35;;;13.75;;
1975;SDS011;988;48.016;7.800;2023-03-14T10:00:51;15.25;;;14.65;;
1975;SDS011;988;48.016;7.800;2023-03-14T10:03:23;12.90;;;12.40;;
1975;SDS011;988;48.016;7.800;2023-03-14T10:05:59;12.80;;;12.30;;
1975;SDS011;988;48.016;7.800;2023-03-14T10:08:26;13.00;;;12.50;;
1975;SDS011;988;48.016;7.800;2023-03-14T10:10:52;13.68;;;13.13;;
1975;SDS011;988;48.016;7.800;2023-03-14T10:13:23;13.70;;;13.02;;
1975;SDS011;988;48.016;7.800;2023-03-14T10:15:54;15.30;;;14.60;;
1975;SDS011;988;48.016;7.800;2023-03-14T10:18:28;14.43;;;13.82;;
1975;SDS011;988;48.016;7.800;2023-03-14T10:21:06;15.90;;;15.30;;
1975;SDS011;988;48.016;7.800;2023-03-14T10:23:41;19.50;;;15.38;;
1975;SDS011;988;48.016;7.800;2023-03-14T10:26:15;16.85;;;16.15;;
1975;SDS011;988;48.016;7.800;2023-03-14T10:31:12;13.52;;;13.02;;
1975;SDS011;988;48.016;7.800;2023-03-14T10:33:38;15.30;;;14.70;;
1975;SDS011;988;48.016;7.800;2023-03-14T10:36:05;14.13;;;13.60;;
1975;SDS011;988;48.016;7.800;2023-03-14T10:38:46;16.08;;;15.38;;
1975;SDS011;988;48.016;7.800;2023-03-14T10:43:59;15.13;;;14.43;;
1975;SDS011;988;48.016;7.800;2023-03-14T10:46:26;16.25;;;15.45;;
1975;SDS011;988;48.016;7.800;2023-03-14T10:48:54;14.50;;;13.90;;
1975;SDS011;988;48.016;7.800;2023-03-14T10:51:25;14.68;;;14.07;;
1975;SDS011;988;48.016;7.800;2023-03-14T10:56:23;14.07;;;13.48;;
1975;SDS011;988;48.016;7.800;2023-03-14T10:58:50;13.82;;;13.32;;
1975;SDS011;988;48.016;7.800;2023-03-14T11:07:13;16.02;;;15.40;;
1975;SDS011;988;48.016;7.800;2023-03-14T11:13:00;14.43;;;13.70;;
1975;SDS011;988;48.016;7.800;2023-03-14T11:15:33;15.82;;;15.23;;
1975;SDS011;988;48.016;7.800;2023-03-14T11:21:13;15.18;;;14.57;;
1975;SDS011;988;48.016;7.800;2023-03-14T11:23:59;13.18;;;12.68;;
1975;SDS011;988;48.016;7.800;2023-03-14T11:29:20;12.75;;;12.25;;
1975;SDS011;988;48.016;7.800;2023-03-14T11:31:54;23.70;;;22.40;;
1975;SDS011;988;48.016;7.800;2023-03-14T11:34:27;18.00;;;17.00;;
1975;SDS011;988;48.016;7.800;2023-03-14T11:37:07;15.90;;;15.20;;
1975;SDS011;988;48.016;7.800;2023-03-14T11:39:56;14.82;;;14.10;;
1975;SDS011;988;48.016;7.800;2023-03-14T11:42:37;14.82;;;14.23;;
1975;SDS011;988;48.016;7.800;2023-03-14T11:45:11;14.32;;;13.55;;
1975;SDS011;988;48.016;7.800;2023-03-14T11:47:44;11.75;;;11.20;;
1975;SDS011;988;48.016;7.800;2023-03-14T11:50:15;12.60;;;12.00;;
1975;SDS011;988;48.016;7.800;2023-03-14T11:52:48;12.85;;;12.35;;
1975;SDS011;988;48.016;7.800;2023-03-14T11:57:45;17.52;;;16.08;;
1975;SDS011;988;48.016;7.800;2023-03-14T12:00:14;21.30;;;20.30;;
1975;SDS011;988;48.016;7.800;2023-03-14T12:05:43;16.10;;;15.30;;
1975;SDS011;988;48.016;7.800;2023-03-14T12:13:57;16.00;;;15.30;;
1975;SDS011;988;48.016;7.800;2023-03-14T12:18:48;15.87;;;15.17;;
1975;SDS011;988;48.016;7.800;2023-03-14T12:21:14;17.00;;;16.30;;
1975;SDS011;988;48.016;7.800;2023-03-14T12:23:42;17.40;;;16.60;;
1975;SDS011;988;48.016;7.800;2023-03-14T12:26:49;17.33;;;16.38;;
1975;SDS011;988;48.016;7.800;2023-03-14T12:29:17;17.00;;;16.20;;
1975;SDS011;988;48.016;7.800;2023-03-14T12:31:44;16.40;;;15.70;;
1975;SDS011;988;48.016;7.800;2023-03-14T12:42:02;16.25;;;15.55;;
1975;SDS011;988;48.016;7.800;2023-03-14T12:46:56;15.50;;;14.80;;
1975;SDS011;988;48.016;7.800;2023-03-14T12:49:28;15.90;;;15.20;;
1975;SDS011;988;48.016;7.800;2023-03-14T12:51:59;16.83;;;16.03;;
1975;SDS011;988;48.016;7.800;2023-03-14T12:59:51;17.50;;;16.80;;
1975;SDS011;988;48.016;7.800;2023-03-14T13:02:28;17.70;;;16.90;;
1975;SDS011;988;48.016;7.800;2023-03-14T13:05:09;16.45;;;15.68;;
1975;SDS011;988;48.016;7.800;2023-03-14T13:10:22;16.50;;;15.80;;
1975;SDS011;988;48.016;7.800;2023-03-14T13:12:57;16.52;;;15.82;;
1975;SDS011;988;48.016;7.800;2023-03-14T13:15:33;16.38;;;15.68;;
1975;SDS011;988;48.016;7.800;2023-03-14T13:18:17;15.88;;;15.18;;
1975;SDS011;988;48.016;7.800;2023-03-14T13:20:50;15.77;;;14.88;;
1975;SDS011;988;48.016;7.800;2023-03-14T13:23:20;16.08;;;15.27;;
1975;SDS011;988;48.016;7.800;2023-03-14T13:25:52;16.50;;;15.80;;
1975;SDS011;988;48.016;7.800;2023-03-14T13:28:18;16.80;;;15.93;;
1975;SDS011;988;48.016;7.800;2023-03-14T13:30:45;17.08;;;16.13;;
1975;SDS011;988;48.016;7.800;2023-03-14T13:33:17;17.83;;;16.92;;
1975;SDS011;988;48.016;7.800;2023-03-14T13:35:48;14.95;;;14.25;;
1975;SDS011;988;48.016;7.800;2023-03-14T13:38:21;16.30;;;15.57;;
1975;SDS011;988;48.016;7.800;2023-03-14T13:40:48;16.80;;;16.00;;
1975;SDS011;988;48.016;7.800;2023-03-14T13:46:03;16.02;;;15.02;;
1975;SDS011;988;48.016;7.800;2023-03-14T13:48:31;15.82;;;15.13;;
1975;SDS011;988;48.016;7.800;2023-03-14T13:51:00;16.88;;;16.08;;
1975;SDS011;988;48.016;7.800;2023-03-14T13:53:29;16.83;;;15.82;;
1975;SDS011;988;48.016;7.800;2023-03-14T13:55:55;16.87;;;15.93;;
1975;SDS011;988;48.016;7.800;2023-03-14T13:58:27;17.23;;;16.43;;
1975;SDS011;988;48.016;7.800;2023-03-14T14:03:34;16.23;;;15.52;;
1975;SDS011;988;48.016;7.800;2023-03-14T14:06:03;15.05;;;14.15;;
1975;SDS011;988;48.016;7.800;2023-03-14T14:08:33;15.20;;;14.50;;
1975;SDS011;988;48.016;7.800;2023-03-14T14:10:59;16.77;;;15.80;;
1975;SDS011;988;48.016;7.800;2023-03-14T14:13:27;14.82;;;14.02;;
1975;SDS011;988;48.016;7.800;2023-03-14T14:15:57;15.98;;;15.27;;
1975;SDS011;988;48.016;7.800;2023-03-14T14:18:25;18.02;;;16.88;;
1975;SDS011;988;48.016;7.800;2023-03-14T14:20:53;15.75;;;14.57;;
1975;SDS011;988;48.016;7.800;2023-03-14T14:23:20;18.23;;;17.17;;
1975;SDS011;988;48.016;7.800;2023-03-14T14:25:53;17.85;;;16.63;;
1975;SDS011;988;48.016;7.800;2023-03-14T14:28:30;17.20;;;16.40;;
1975;SDS011;988;48.016;7.800;2023-03-14T14:31:05;17.45;;;16.42;;
1975;SDS011;988;48.016;7.800;2023-03-14T14:33:59;16.53;;;15.53;;
1975;SDS011;988;48.016;7.800;2023-03-14T14:36:36;16.07;;;15.07;;
1975;SDS011;988;48.016;7.800;2023-03-14T14:41:49;16.00;;;15.20;;
1975;SDS011;988;48.016;7.800;2023-03-14T14:44:17;16.88;;;16.00;;
1975;SDS011;988;48.016;7.800;2023-03-14T14:46:47;16.55;;;15.77;;
1975;SDS011;988;48.016;7.800;2023-03-14T14:49:14;17.70;;;16.60;;
1975;SDS011;988;48.016;7.800;2023-03-14T14:51:43;15.75;;;15.05;;
1975;SDS011;988;48.016;7.800;2023-03-14T14:54:14;16.88;;;15.57;;
1975;SDS011;988;48.016;7.800;2023-03-14T14:56:40;15.75;;;14.93;;
1975;SDS011;988;48.016;7.800;2023-03-14T14:59:06;16.20;;;15.40;;
1975;SDS011;988;48.016;7.800;2023-03-14T15:01:43;17.20;;;16.30;;
1975;SDS011;988;48.016;7.800;2023-03-14T15:04:10;17.03;;;15.93;;
1975;SDS011;988;48.016;7.800;2023-03-14T15:06:38;17.93;;;16.90;;
1975;SDS011;988;48.016;7.800;2023-03-14T15:09:08;15.40;;;14.60;;
1975;SDS011;988;48.016;7.800;2023-03-14T15:11:35;16.00;;;15.10;;
1975;SDS011;988;48.016;7.800;2023-03-14T15:14:01;17.13;;;15.70;;
1975;SDS011;988;48.016;7.800;2023-03-14T15:16:28;15.87;;;15.03;;
1975;SDS011;988;48.016;7.800;2023-03-14T15:19:00;16.47;;;14.90;;
1975;SDS011;988;48.016;7.800;2023-03-14T15:21:31;15.23;;;14.47;;
1975;SDS011;988;48.016;7.800;2023-03-14T15:23:58;15.37;;;14.27;;
1975;SDS011;988;48.016;7.800;2023-03-14T15:26:25;15.87;;;15.07;;
1975;SDS011;988;48.016;7.800;2023-03-14T15:28:52;18.40;;;17.00;;
1975;SDS011;988;48.016;7.800;2023-03-14T15:31:18;15.83;;;14.60;;
1975;SDS011;988;48.016;7.800;2023-03-14T15:33:46;16.60;;;15.80;;
1975;SDS011;988;48.016;7.800;2023-03-14T15:36:19;17.05;;;16.15;;
1975;SDS011;988;48.016;7.800;2023-03-14T15:38:51;17.35;;;16.27;;
1975;SDS011;988;48.016;7.800;2023-03-14T15:41:17;17.63;;;16.83;;
1975;SDS011;988;48.016;7.800;2023-03-14T15:43:44;17.77;;;16.88;;
1975;SDS011;988;48.016;7.800;2023-03-14T15:46:10;17.95;;;16.95;;
1975;SDS011;988;48.016;7.800;2023-03-14T15:48:36;18.25;;;17.25;;
1975;SDS011;988;48.016;7.800;2023-03-14T15:51:02;17.33;;;16.27;;
1975;SDS011;988;48.016;7.800;2023-03-14T15:53:28;16.67;;;15.83;;
1975;SDS011;988;48.016;7.800;2023-03-14T15:55:53;17.57;;;16.50;;
1975;SDS011;988;48.016;7.800;2023-03-14T15:58:19;18.57;;;17.37;;
1975;SDS011;988;48.016;7.800;2023-03-14T16:00:45;16.83;;;15.83;;
1975;SDS011;988;48.016;7.800;2023-03-14T16:03:11;17.73;;;16.73;;
1975;SDS011;988;48.016;7.800;2023-03-14T16:05:37;17.83;;;16.67;;
1975;SDS011;988;48.016;7.800;2023-03-14T16:08:03;17.83;;;17.00;;
1975;SDS011;988;48.016;7.800;2023-03-14T16:10:29;16.83;;;15.93;;
1975;SDS011;988;48.016;7.800;2023-03-14T16:12:55;16.15;;;15.35;;